createdAt,value
2024-04-17T00:00:47.003Z,90.7
2024-04-17T00:01:47.032Z,90.7
2024-04-17T00:02:46.956Z,90.7
2024-04-17T00:03:47.051Z,90.8
2024-04-17T00:04:47.049Z,90.8
2024-04-17T00:05:46.910Z,90.8
2024-04-17T00:06:46.978Z,90.7
2024-04-17T00:07:47.037Z,90.8
2024-04-17T00:08:46.987Z,90.9
2024-04-17T00:09:46.979Z,90.6
2024-04-17T00:10:47.086Z,90.7
2024-04-17T00:11:46.967Z,90.7
2024-04-17T00:12:46.960Z,90.7
2024-04-17T00:13:47.039Z,90.8
2024-04-17T00:14:46.981Z,90.9
2024-04-17T00:15:46.985Z,90.9
2024-04-17T00:16:47.055Z,91.1
2024-04-17T00:17:47.052Z,91.4
2024-04-17T00:18:46.968Z,91.1
2024-04-17T00:19:46.985Z,91.1
2024-04-17T00:20:46.985Z,91.1
2024-04-17T00:21:46.979Z,90.9
2024-04-17T00:22:47.013Z,90.9
2024-04-17T00:23:46.979Z,91
2024-04-17T00:24:46.970Z,90.9
2024-04-17T00:25:47.013Z,90.9
2024-04-17T00:26:46.991Z,90.8
2024-04-17T00:27:46.974Z,90.8
2024-04-17T00:28:47.074Z,90.9
2024-04-17T00:29:46.982Z,90.6
2024-04-17T00:30:46.955Z,90.5
2024-04-17T00:31:46.993Z,90.4
2024-04-17T00:32:47.024Z,90.4
2024-04-17T00:33:47.060Z,90.5
2024-04-17T00:34:47.037Z,90.7
2024-04-17T00:35:46.994Z,90.9
2024-04-17T00:36:46.973Z,90.9
2024-04-17T00:37:46.979Z,91
2024-04-17T00:38:46.973Z,90.9
2024-04-17T00:39:46.956Z,90.9
2024-04-17T00:40:47.051Z,91
2024-04-17T00:41:46.960Z,90.8
2024-04-17T00:42:46.976Z,90.8
2024-04-17T00:43:47.045Z,90.8
2024-04-17T00:44:46.985Z,90.8
2024-04-17T00:45:46.986Z,90.7
2024-04-17T00:46:47.012Z,90.6
2024-04-17T00:47:47.155Z,90.8
2024-04-17T00:48:46.996Z,91
2024-04-17T00:49:47.023Z,90.7
2024-04-17T00:50:46.981Z,90.7
2024-04-17T00:51:46.940Z,90.6
2024-04-17T00:52:47.034Z,90.5
2024-04-17T00:53:46.979Z,90.4
2024-04-17T00:54:46.995Z,90.4
2024-04-17T00:55:47.024Z,90.6
2024-04-17T00:56:46.951Z,90.5
2024-04-17T00:57:46.961Z,90.4
2024-04-17T00:58:46.987Z,90.6
2024-04-17T00:59:46.989Z,90.9
2024-04-17T01:00:46.968Z,91
2024-04-17T01:01:47.000Z,91.3
2024-04-17T01:02:47.024Z,91.1
2024-04-17T01:03:46.996Z,91.4
2024-04-17T01:04:47.032Z,91.6
2024-04-17T01:05:46.962Z,91.8
2024-04-17T01:06:46.973Z,92.1
2024-04-17T01:07:46.974Z,92.2
2024-04-17T01:08:46.977Z,92.5
2024-04-17T01:09:46.962Z,92.6
2024-04-17T01:10:47.101Z,92.8
2024-04-17T01:11:46.956Z,92.9
2024-04-17T01:12:46.991Z,92.8
2024-04-17T01:13:46.954Z,92.9
2024-04-17T01:14:46.985Z,92.9
2024-04-17T01:15:46.971Z,93.1
2024-04-17T01:16:46.984Z,93.2
2024-04-17T01:17:47.051Z,93.3
2024-04-17T01:18:46.986Z,93.4
2024-04-17T01:19:47.019Z,93.2
2024-04-17T01:20:46.956Z,93.1
2024-04-17T01:21:46.969Z,93
2024-04-17T01:22:47.056Z,93.1
2024-04-17T01:23:46.985Z,93
2024-04-17T01:24:46.949Z,93
2024-04-17T01:25:47.034Z,92.9
2024-04-17T01:26:46.985Z,93
2024-04-17T01:27:46.954Z,93
2024-04-17T01:28:47.000Z,93.2
2024-04-17T01:29:46.972Z,93.2
2024-04-17T01:30:46.976Z,93.3
2024-04-17T01:31:47.020Z,93.4
2024-04-17T01:32:47.108Z,93.7
2024-04-17T01:33:46.981Z,93.8
2024-04-17T01:34:46.990Z,93.8
2024-04-17T01:35:46.947Z,93.9
2024-04-17T01:36:46.962Z,93.8
2024-04-17T01:37:46.986Z,93.9
2024-04-17T01:38:46.996Z,93.7
2024-04-17T01:39:46.938Z,93.7
2024-04-17T01:40:47.028Z,93.2
2024-04-17T01:41:46.982Z,92.7
2024-04-17T01:42:46.930Z,92.5
2024-04-17T01:43:47.003Z,92.4
2024-04-17T01:44:46.964Z,92.5
2024-04-17T01:45:46.983Z,92.4
2024-04-17T01:46:46.975Z,92.3
2024-04-17T01:47:47.033Z,92.3
2024-04-17T01:48:46.954Z,92.4
2024-04-17T01:49:46.990Z,92.3
2024-04-17T01:50:47.007Z,92.2
2024-04-17T01:51:46.971Z,92.1
2024-04-17T01:52:46.999Z,92
2024-04-17T01:53:46.963Z,92
2024-04-17T01:54:46.991Z,92.1
2024-04-17T01:55:47.015Z,92.2
2024-04-17T01:56:46.972Z,92.3
2024-04-17T01:57:46.973Z,92.5
2024-04-17T01:58:46.984Z,92.6
2024-04-17T01:59:46.982Z,92.9
2024-04-17T02:00:46.989Z,92.9
2024-04-17T02:01:46.992Z,92.7
2024-04-17T02:02:46.993Z,92.7
2024-04-17T02:03:46.984Z,92.7
2024-04-17T02:04:47.036Z,92.8
2024-04-17T02:05:46.984Z,92.8
2024-04-17T02:06:46.944Z,92.9
2024-04-17T02:07:47.002Z,92.8
2024-04-17T02:08:46.965Z,92.7
2024-04-17T02:09:46.965Z,92.8
2024-04-17T02:10:47.012Z,92.7
2024-04-17T02:11:46.995Z,92.8
2024-04-17T02:12:46.984Z,92.8
2024-04-17T02:13:47.005Z,92.9
2024-04-17T02:14:46.932Z,92.9
2024-04-17T02:15:46.942Z,92.9
2024-04-17T02:16:46.982Z,92.5
2024-04-17T02:17:47.086Z,91.9
2024-04-17T02:18:46.956Z,91.9
2024-04-17T02:19:46.992Z,91.9
2024-04-17T02:20:46.986Z,92
2024-04-17T02:21:46.937Z,91.9
2024-04-17T02:22:46.995Z,92.1
2024-04-17T02:23:46.986Z,92.3
2024-04-17T02:24:46.978Z,92.5
2024-04-17T02:25:46.984Z,92.7
2024-04-17T02:26:46.956Z,92.7
2024-04-17T02:27:46.974Z,92.9
2024-04-17T02:28:47.043Z,92.7
2024-04-17T02:29:46.982Z,92.8
2024-04-17T02:30:46.986Z,92.7
2024-04-17T02:31:47.015Z,92.5
2024-04-17T02:32:47.095Z,92.7
2024-04-17T02:33:47.040Z,92.8
2024-04-17T02:34:46.995Z,93
2024-04-17T02:35:46.988Z,93
2024-04-17T02:36:46.971Z,93.2
2024-04-17T02:37:46.995Z,93.2
2024-04-17T02:38:46.977Z,93
2024-04-17T02:39:46.980Z,93.1
2024-04-17T02:40:46.995Z,93.1
2024-04-17T02:41:46.970Z,92.6
2024-04-17T02:42:46.987Z,92.4
2024-04-17T02:43:47.032Z,92.3
2024-04-17T02:44:46.962Z,92.2
2024-04-17T02:45:46.948Z,92.3
2024-04-17T02:46:47.041Z,92.4
2024-04-17T02:47:47.102Z,92.5
2024-04-17T02:48:46.934Z,92.5
2024-04-17T02:49:46.990Z,92.3
2024-04-17T02:50:46.972Z,92.4
2024-04-17T02:51:46.977Z,92.6
2024-04-17T02:52:46.989Z,92.7
2024-04-17T02:53:46.981Z,92.8
2024-04-17T02:54:46.965Z,92.5
2024-04-17T02:55:46.993Z,92.8
2024-04-17T02:56:46.946Z,93
2024-04-17T02:57:46.969Z,93.3
2024-04-17T02:58:47.028Z,93.3
2024-04-17T02:59:46.983Z,93.5
2024-04-17T03:00:46.980Z,93.4
2024-04-17T03:01:47.030Z,93
2024-04-17T03:02:46.986Z,93
2024-04-17T03:03:47.012Z,93.1
2024-04-17T03:04:47.051Z,93.1
2024-04-17T03:05:46.966Z,92.9
2024-04-17T03:06:46.979Z,92.9
2024-04-17T03:07:46.985Z,93
2024-04-17T03:08:46.988Z,92.9
2024-04-17T03:09:46.992Z,93
2024-04-17T03:10:47.009Z,93.3
2024-04-17T03:11:47.111Z,93.4
2024-04-17T03:12:46.976Z,93.2
2024-04-17T03:13:47.031Z,93.1
2024-04-17T03:14:46.942Z,92.8
2024-04-17T03:15:47.362Z,92.6
2024-04-17T03:16:47.016Z,92.6
2024-04-17T03:17:47.121Z,92.7
2024-04-17T03:18:46.982Z,92.7
2024-04-17T03:19:47.058Z,92.6
2024-04-17T03:20:46.952Z,93.1
2024-04-17T03:21:46.990Z,93
2024-04-17T03:22:47.000Z,93.4
2024-04-17T03:23:46.983Z,93.1
2024-04-17T03:24:46.935Z,93.2
2024-04-17T03:25:47.053Z,93.1
2024-04-17T03:26:46.980Z,93
2024-04-17T03:27:46.948Z,92.8
2024-04-17T03:28:47.067Z,92.7
2024-04-17T03:29:46.964Z,92.7
2024-04-17T03:30:46.965Z,92.6
2024-04-17T03:31:47.010Z,92.1
2024-04-17T03:32:47.154Z,92
2024-04-17T03:33:47.030Z,92
2024-04-17T03:34:47.024Z,91.8
2024-04-17T03:35:46.958Z,92
2024-04-17T03:36:46.975Z,91.9
2024-04-17T03:37:47.000Z,92.1
2024-04-17T03:38:46.979Z,91.9
2024-04-17T03:39:47.058Z,91.8
2024-04-17T03:40:47.008Z,92.1
2024-04-17T03:41:46.971Z,92
2024-04-17T03:42:46.985Z,92
2024-04-17T03:43:47.028Z,92
2024-04-17T03:44:46.990Z,92.1
2024-04-17T03:45:46.983Z,92
2024-04-17T03:46:47.026Z,92
2024-04-17T03:47:47.049Z,91.5
2024-04-17T03:48:46.978Z,91.6
2024-04-17T03:49:47.002Z,91
2024-04-17T03:50:46.972Z,90.7
2024-04-17T03:51:46.961Z,90.4
2024-04-17T03:52:47.014Z,90.1
2024-04-17T03:53:46.967Z,90
2024-04-17T03:54:46.990Z,89.8
2024-04-17T03:55:47.054Z,89.6
2024-04-17T03:56:46.958Z,89.6
2024-04-17T03:57:46.976Z,89.8
2024-04-17T03:58:46.977Z,89.9
2024-04-17T03:59:46.996Z,89.9
2024-04-17T04:00:46.979Z,90
2024-04-17T04:01:47.045Z,90.1
2024-04-17T04:02:47.040Z,90.2
2024-04-17T04:03:47.070Z,90
2024-04-17T04:04:47.011Z,89.6
2024-04-17T04:05:46.974Z,89.4
2024-04-17T04:06:46.968Z,89.1
2024-04-17T04:07:46.973Z,88.5
2024-04-17T04:08:46.977Z,87.9
2024-04-17T04:09:46.987Z,88
2024-04-17T04:10:47.118Z,88
2024-04-17T04:11:47.022Z,87.9
2024-04-17T04:12:46.989Z,87.4
2024-04-17T04:13:47.013Z,87.5
2024-04-17T04:14:49.226Z,87
2024-04-17T04:15:46.986Z,86
2024-04-17T04:16:47.035Z,85.8
2024-04-17T04:17:47.052Z,85.5
2024-04-17T04:18:46.964Z,85.3
2024-04-17T04:19:46.951Z,85.6
2024-04-17T04:20:46.942Z,85.2
2024-04-17T04:21:46.979Z,84.9
2024-04-17T04:22:47.003Z,85
2024-04-17T04:23:46.991Z,84.8
2024-04-17T04:24:46.947Z,84.8
2024-04-17T04:25:47.031Z,84.9
2024-04-17T04:26:47.011Z,84.9
2024-04-17T04:27:46.989Z,84.2
2024-04-17T04:28:47.039Z,84.1
2024-04-17T04:29:46.987Z,81.6
2024-04-17T04:30:46.927Z,81.7
2024-04-17T04:31:47.034Z,81.3
2024-04-17T04:32:47.013Z,80.7
2024-04-17T04:33:46.980Z,80.6
2024-04-17T04:34:47.045Z,80.7
2024-04-17T04:35:46.974Z,80.5
2024-04-17T04:36:46.935Z,79.2
2024-04-17T04:37:47.066Z,80.4
2024-04-17T04:38:47.026Z,79.8
2024-04-17T04:39:46.946Z,79.9
2024-04-17T04:40:46.940Z,79.6
2024-04-17T04:41:46.993Z,80.5
2024-04-17T04:42:46.960Z,80
2024-04-17T04:43:47.016Z,79.3
2024-04-17T04:44:46.968Z,80.2
2024-04-17T04:45:46.999Z,79.1
2024-04-17T04:46:47.024Z,80
2024-04-17T04:47:47.070Z,79.5
2024-04-17T04:48:46.955Z,78.8
2024-04-17T04:49:47.058Z,79
2024-04-17T04:50:46.975Z,78.5
2024-04-17T04:51:46.942Z,78.9
2024-04-17T04:52:47.017Z,78.7
2024-04-17T04:53:46.951Z,78.8
2024-04-17T04:54:46.959Z,78
2024-04-17T04:55:47.019Z,79.1
2024-04-17T04:56:46.940Z,79.8
2024-04-17T04:57:46.955Z,78.3
2024-04-17T04:58:47.009Z,77.3
2024-04-17T04:59:46.958Z,77.3
2024-04-17T05:00:47.018Z,77
2024-04-17T05:01:47.023Z,77.2
2024-04-17T05:02:46.974Z,77.1
2024-04-17T05:03:47.023Z,76.8
2024-04-17T05:04:46.978Z,76.4
2024-04-17T05:05:46.963Z,75.2
2024-04-17T05:06:47.006Z,75.9
2024-04-17T05:07:47.022Z,74.7
2024-04-17T05:08:47.007Z,76.5
2024-04-17T05:09:46.903Z,75.6
2024-04-17T05:10:47.012Z,75.2
2024-04-17T05:11:47.024Z,75.4
2024-04-17T05:12:46.980Z,74.8
2024-04-17T05:13:46.983Z,74
2024-04-17T05:14:46.991Z,74.1
2024-04-17T05:15:46.999Z,73.6
2024-04-17T05:16:47.022Z,73.5
2024-04-17T05:17:47.079Z,72.8
2024-04-17T05:18:46.990Z,73.4
2024-04-17T05:19:47.014Z,71.2
2024-04-17T05:20:46.984Z,71.7
2024-04-17T05:21:46.996Z,72.4
2024-04-17T05:22:47.067Z,71.3
2024-04-17T05:23:46.966Z,70.9
2024-04-17T05:24:46.988Z,71.2
2024-04-17T05:25:47.058Z,72.2
2024-04-17T05:26:46.993Z,71.1
2024-04-17T05:27:46.985Z,71.1
2024-04-17T05:28:46.998Z,69.8
2024-04-17T05:29:47.408Z,71.8
2024-04-17T05:30:46.963Z,69.2
2024-04-17T05:31:46.991Z,71.5
2024-04-17T05:32:47.122Z,68.5
2024-04-17T05:33:47.012Z,67.8
2024-04-17T05:34:46.973Z,67.7
2024-04-17T05:35:46.958Z,68.4
2024-04-17T05:36:46.920Z,69.3
2024-04-17T05:37:47.002Z,68.3
2024-04-17T05:38:47.003Z,68
2024-04-17T05:39:46.979Z,67.5
2024-04-17T05:40:47.058Z,67.1
2024-04-17T05:41:46.991Z,67
2024-04-17T05:42:46.957Z,68
2024-04-17T05:43:47.042Z,69.4
2024-04-17T05:44:46.951Z,65.3
2024-04-17T05:45:46.976Z,65.9
2024-04-17T05:46:47.058Z,66.6
2024-04-17T05:47:47.020Z,67.8
2024-04-17T05:48:46.963Z,65.3
2024-04-17T05:49:46.989Z,66.5
2024-04-17T05:50:46.985Z,68
2024-04-17T05:51:46.977Z,64.7
2024-04-17T05:52:46.984Z,65.1
2024-04-17T05:53:46.971Z,65.7
2024-04-17T05:54:46.980Z,65.2
2024-04-17T05:55:47.037Z,65.5
2024-04-17T05:56:46.980Z,65.7
2024-04-17T05:57:46.969Z,64.9
2024-04-17T05:58:47.004Z,66.6
2024-04-17T05:59:46.980Z,64.4
2024-04-17T06:00:47.015Z,64.5
2024-04-17T06:01:47.027Z,64.7
2024-04-17T06:02:46.998Z,65
2024-04-17T06:03:47.057Z,66.5
2024-04-17T06:04:46.980Z,64.6
2024-04-17T06:05:47.001Z,65.3
2024-04-17T06:06:46.954Z,66
2024-04-17T06:07:47.023Z,63.9
2024-04-17T06:08:46.995Z,67.2
2024-04-17T06:09:46.960Z,64.5
2024-04-17T06:10:46.973Z,65.1
2024-04-17T06:11:46.956Z,65.5
2024-04-17T06:12:46.973Z,64.8
2024-04-17T06:13:46.992Z,64.7
2024-04-17T06:14:46.999Z,64.5
2024-04-17T06:15:46.988Z,65.5
2024-04-17T06:16:47.023Z,64.9
2024-04-17T06:17:46.969Z,65.2
2024-04-17T06:18:47.062Z,65.3
2024-04-17T06:19:46.990Z,64
2024-04-17T06:20:46.981Z,63.6
2024-04-17T06:21:46.997Z,64.8
2024-04-17T06:22:47.023Z,64.1
2024-04-17T06:23:46.958Z,67
2024-04-17T06:24:46.975Z,63.4
2024-04-17T06:25:47.100Z,64
2024-04-17T06:26:46.975Z,66.5
2024-04-17T06:27:46.937Z,65.8
2024-04-17T06:28:47.023Z,66.6
2024-04-17T06:29:46.928Z,64.8
2024-04-17T06:30:46.987Z,65.3
2024-04-17T06:31:47.007Z,65
2024-04-17T06:32:47.153Z,65.7
2024-04-17T06:33:46.953Z,62.7
2024-04-17T06:34:46.999Z,63.9
2024-04-17T06:35:46.948Z,64.9
2024-04-17T06:36:46.981Z,63.7
2024-04-17T06:37:46.999Z,64.8
2024-04-17T06:38:46.958Z,62.6
2024-04-17T06:39:46.973Z,64.6
2024-04-17T06:40:47.053Z,63.5
2024-04-17T06:41:52.284Z,65.3
2024-04-17T06:42:46.979Z,63.1
2024-04-17T06:43:47.007Z,65.2
2024-04-17T06:44:46.986Z,62.5
2024-04-17T06:45:46.986Z,65.7
2024-04-17T06:46:47.000Z,64.7
2024-04-17T06:47:47.028Z,63.5
2024-04-17T06:48:46.981Z,63.6
2024-04-17T06:49:46.925Z,64.6
2024-04-17T06:50:46.986Z,65.6
2024-04-17T06:51:46.976Z,66.3
2024-04-17T06:52:46.991Z,62.9
2024-04-17T06:53:46.992Z,66.2
2024-04-17T06:54:46.985Z,61.9
2024-04-17T06:55:47.005Z,62.8
2024-04-17T06:56:46.965Z,64.8
2024-04-17T06:57:46.975Z,64.9
2024-04-17T06:58:46.967Z,66.2
2024-04-17T06:59:46.971Z,63.7
2024-04-17T07:00:47.022Z,61.2
2024-04-17T07:01:47.252Z,65.3
2024-04-17T07:02:52.251Z,62.6
2024-04-17T07:03:46.988Z,64.3
2024-04-17T07:04:46.967Z,62.1
2024-04-17T07:05:46.959Z,64.8
2024-04-17T07:06:46.979Z,65.3
2024-04-17T07:07:47.026Z,63.6
2024-04-17T07:08:46.953Z,62.4
2024-04-17T07:09:46.983Z,62.2
2024-04-17T07:10:47.048Z,64
2024-04-17T07:11:46.993Z,65.1
2024-04-17T07:12:46.970Z,62.1
2024-04-17T07:13:47.017Z,63.1
2024-04-17T07:14:46.992Z,64.9
2024-04-17T07:15:46.958Z,62.6
2024-04-17T07:16:47.014Z,61.2
2024-04-17T07:17:47.017Z,63.8
2024-04-17T07:18:47.018Z,61.5
2024-04-17T07:19:47.025Z,62.2
2024-04-17T07:20:46.987Z,61.7
2024-04-17T07:21:46.976Z,63.5
2024-04-17T07:22:47.002Z,60.8
2024-04-17T07:23:46.935Z,61.3
2024-04-17T07:24:46.983Z,62.1
2024-04-17T07:25:47.024Z,63.5
2024-04-17T07:26:46.988Z,59.4
2024-04-17T07:27:46.965Z,59.3
2024-04-17T07:28:46.996Z,60.7
2024-04-17T07:29:46.964Z,58.9
2024-04-17T07:30:46.945Z,59.3
2024-04-17T07:31:47.056Z,58.3
2024-04-17T07:32:47.109Z,58.4
2024-04-17T07:33:46.980Z,63.2
2024-04-17T07:34:46.985Z,62.7
2024-04-17T07:35:46.986Z,61.1
2024-04-17T07:36:46.972Z,59.6
2024-04-17T07:37:47.000Z,60.3
2024-04-17T07:38:46.966Z,60.9
2024-04-17T07:39:46.962Z,62.4
2024-04-17T07:40:47.025Z,61.5
2024-04-17T07:41:46.984Z,62
2024-04-17T07:42:46.969Z,61.5
2024-04-17T07:43:46.981Z,58.4
2024-04-17T07:44:46.980Z,59.3
2024-04-17T07:45:46.958Z,59.1
2024-04-17T07:46:47.097Z,61.8
2024-04-17T07:47:47.056Z,59.5
2024-04-17T07:48:47.039Z,61.2
2024-04-17T07:49:47.164Z,59
2024-04-17T07:50:46.981Z,60.3
2024-04-17T07:51:46.944Z,61.6
2024-04-17T07:52:47.031Z,62
2024-04-17T07:53:46.928Z,61.5
2024-04-17T07:54:46.957Z,61.8
2024-04-17T07:55:47.018Z,59.6
2024-04-17T07:56:47.062Z,60.4
2024-04-17T07:57:46.957Z,60.2
2024-04-17T07:58:47.045Z,61.1
2024-04-17T07:59:46.958Z,60.3
2024-04-17T08:00:47.010Z,60.9
2024-04-17T08:01:46.963Z,62
2024-04-17T08:02:47.138Z,60.2
2024-04-17T08:03:46.999Z,58.4
2024-04-17T08:04:46.991Z,61.5
2024-04-17T08:05:46.990Z,60
2024-04-17T08:06:46.927Z,59.8
2024-04-17T08:07:47.023Z,59.5
2024-04-17T08:08:46.985Z,62
2024-04-17T08:09:46.971Z,59.3
2024-04-17T08:10:47.042Z,59.9
2024-04-17T08:11:46.976Z,62
2024-04-17T08:12:46.973Z,60.6
2024-04-17T08:13:46.996Z,61.1
2024-04-17T08:14:46.987Z,61
2024-04-17T08:15:46.940Z,60.7
2024-04-17T08:16:47.895Z,59.6
2024-04-17T08:17:47.071Z,58.9
2024-04-17T08:18:47.036Z,57.8
2024-04-17T08:19:47.086Z,60.5
2024-04-17T08:20:46.949Z,63.8
2024-04-17T08:21:46.944Z,59.9
2024-04-17T08:22:47.004Z,59.8
2024-04-17T08:23:46.996Z,60.7
2024-04-17T08:24:46.980Z,63.3
2024-04-17T08:25:47.007Z,60.6
2024-04-17T08:26:46.991Z,62.4
2024-04-17T08:27:46.983Z,60
2024-04-17T08:28:47.000Z,58.7
2024-04-17T08:29:46.992Z,62.6
2024-04-17T08:30:46.985Z,61.8
2024-04-17T08:31:47.021Z,58.7
2024-04-17T08:32:47.045Z,60.1
2024-04-17T08:33:47.122Z,58.6
2024-04-17T08:34:49.661Z,59.1
2024-04-17T08:35:47.032Z,60.6
2024-04-17T08:36:46.967Z,61.4
2024-04-17T08:37:47.055Z,61.7
2024-04-17T08:38:46.968Z,61
2024-04-17T08:39:46.968Z,61.9
2024-04-17T08:40:47.022Z,59.7
2024-04-17T08:41:46.985Z,59.6
2024-04-17T08:42:46.963Z,60.6
2024-04-17T08:43:47.065Z,60.8
2024-04-17T08:44:46.993Z,62
2024-04-17T08:45:50.445Z,60.6
2024-04-17T08:46:47.066Z,61.7
2024-04-17T08:47:47.021Z,60.5
2024-04-17T08:48:47.097Z,62.2
2024-04-17T08:49:46.990Z,62.1
2024-04-17T08:50:47.152Z,59.8
2024-04-17T08:51:46.990Z,59.9
2024-04-17T08:52:47.001Z,59.8
2024-04-17T08:53:46.963Z,62.8
2024-04-17T08:54:46.991Z,60
2024-04-17T08:55:47.033Z,62.1
2024-04-17T08:56:46.982Z,63.4
2024-04-17T08:57:46.984Z,65.4
2024-04-17T08:58:46.980Z,63.4
2024-04-17T08:59:48.446Z,60.2
2024-04-17T09:00:46.977Z,61.3
2024-04-17T09:01:46.994Z,60.8
2024-04-17T09:02:46.992Z,60.6
2024-04-17T09:03:47.123Z,60.9
2024-04-17T09:04:47.040Z,59.6
2024-04-17T09:05:46.978Z,60
2024-04-17T09:06:46.977Z,59.3
2024-04-17T09:07:46.981Z,60.4
2024-04-17T09:08:46.986Z,62.4
2024-04-17T09:09:46.983Z,59.6
2024-04-17T09:10:46.984Z,59.5
2024-04-17T09:11:50.035Z,60.4
2024-04-17T09:12:46.983Z,61.1
2024-04-17T09:13:46.996Z,60.2
2024-04-17T09:14:51.594Z,61.1
2024-04-17T09:15:46.975Z,61.1
2024-04-17T09:16:47.077Z,62.4
2024-04-17T09:17:47.085Z,62.9
2024-04-17T09:18:46.958Z,62.2
2024-04-17T09:19:46.958Z,60.7
2024-04-17T09:20:46.978Z,61.9
2024-04-17T09:21:46.960Z,58.4
2024-04-17T09:22:46.999Z,60.4
2024-04-17T09:23:46.981Z,57.6
2024-04-17T09:24:46.976Z,59.6
2024-04-17T09:25:47.073Z,58.5
2024-04-17T09:26:46.947Z,55.6
2024-04-17T09:27:46.967Z,59
2024-04-17T09:28:47.028Z,56.4
2024-04-17T09:29:46.990Z,60.7
2024-04-17T09:30:46.995Z,58
2024-04-17T09:31:47.046Z,59.8
2024-04-17T09:32:47.041Z,58.5
2024-04-17T09:33:46.986Z,58.1
2024-04-17T09:34:47.015Z,57.5
2024-04-17T09:35:46.966Z,59.5
2024-04-17T09:36:47.009Z,61.4
2024-04-17T09:37:47.008Z,59
2024-04-17T09:38:47.018Z,58.1
2024-04-17T09:39:46.973Z,59.3
2024-04-17T09:40:47.112Z,58.2
2024-04-17T09:41:46.950Z,58.8
2024-04-17T09:42:46.935Z,62.5
2024-04-17T09:43:47.197Z,58.9
2024-04-17T09:44:46.951Z,59.3
2024-04-17T09:45:47.000Z,59.8
2024-04-17T09:46:47.050Z,60.7
2024-04-17T09:47:46.927Z,60.1
2024-04-17T09:48:46.962Z,60.9
2024-04-17T09:49:47.075Z,61.7
2024-04-17T09:50:46.975Z,59.6
2024-04-17T09:51:46.967Z,60.6
2024-04-17T09:52:47.017Z,61.3
2024-04-17T09:53:46.941Z,60
2024-04-17T09:54:47.015Z,59.8
2024-04-17T09:55:47.026Z,62.6
2024-04-17T09:56:47.000Z,62.2
2024-04-17T09:57:46.907Z,60.7
2024-04-17T09:58:56.135Z,62.6
2024-04-17T09:59:46.940Z,61.5
2024-04-17T10:00:47.008Z,61
2024-04-17T10:01:47.000Z,60.4
2024-04-17T10:02:46.995Z,60
2024-04-17T10:03:46.998Z,59.6
2024-04-17T10:04:47.169Z,61.6
2024-04-17T10:05:46.944Z,62.7
2024-04-17T10:06:46.955Z,60.3
2024-04-17T10:07:47.143Z,61.3
2024-04-17T10:08:46.991Z,60.1
2024-04-17T10:09:46.938Z,56
2024-04-17T10:10:46.983Z,57.8
2024-04-17T10:11:47.003Z,56.4
2024-04-17T10:12:46.942Z,57.6
2024-04-17T10:13:47.017Z,58.5
2024-04-17T10:14:46.984Z,57.1
2024-04-17T10:15:46.964Z,53.7
2024-04-17T10:16:47.081Z,52.3
2024-04-17T10:17:47.123Z,54.5
2024-04-17T10:18:47.019Z,57
2024-04-17T10:19:47.036Z,53.9
2024-04-17T10:20:46.986Z,52.5
2024-04-17T10:21:46.947Z,55.1
2024-04-17T10:22:47.006Z,53.8
2024-04-17T10:23:46.973Z,56.5
2024-04-17T10:24:46.928Z,54.7
2024-04-17T10:25:47.151Z,55.1
2024-04-17T10:26:46.978Z,56.5
2024-04-17T10:27:46.993Z,56.6
2024-04-17T10:28:47.014Z,57.7
2024-04-17T10:29:46.992Z,59.2
2024-04-17T10:30:46.962Z,56
2024-04-17T10:31:47.000Z,59.1
2024-04-17T10:32:47.035Z,60.2
2024-04-17T10:33:47.023Z,57.7
2024-04-17T10:34:47.081Z,59.6
2024-04-17T10:35:46.983Z,58.9
2024-04-17T10:36:46.966Z,58.3
2024-04-17T10:37:47.085Z,60.8
2024-04-17T10:38:46.934Z,61.5
2024-04-17T10:39:47.055Z,59.9
2024-04-17T10:40:47.011Z,57.7
2024-04-17T10:41:46.966Z,57.8
2024-04-17T10:42:46.980Z,55.8
2024-04-17T10:43:46.957Z,56.3
2024-04-17T10:44:46.969Z,54.6
2024-04-17T10:45:46.994Z,55.6
2024-04-17T10:46:46.994Z,56
2024-04-17T10:47:46.986Z,56.8
2024-04-17T10:48:47.073Z,55.9
2024-04-17T10:49:46.966Z,57
2024-04-17T10:50:46.988Z,54.9
2024-04-17T10:51:46.967Z,56.3
2024-04-17T10:52:47.031Z,58.1
2024-04-17T10:53:46.971Z,56.4
2024-04-17T10:54:46.943Z,55.1
2024-04-17T10:55:47.029Z,54.5
2024-04-17T10:56:46.939Z,56.9
2024-04-17T10:57:46.983Z,53.9
2024-04-17T10:58:47.101Z,58.6
2024-04-17T10:59:46.962Z,53.3
2024-04-17T11:00:46.984Z,54
2024-04-17T11:01:47.049Z,54.5
2024-04-17T11:02:46.983Z,53.1
2024-04-17T11:03:47.059Z,51.9
2024-04-17T11:04:47.036Z,54.5
2024-04-17T11:05:46.955Z,50.5
2024-04-17T11:06:46.980Z,54.6
2024-04-17T11:07:47.039Z,52.1
2024-04-17T11:08:54.823Z,57.6
2024-04-17T11:09:46.976Z,54.9
2024-04-17T11:10:47.031Z,54
2024-04-17T11:11:47.001Z,53.8
2024-04-17T11:12:46.945Z,54.7
2024-04-17T11:13:46.999Z,56.2
2024-04-17T11:14:47.093Z,55.9
2024-04-17T11:15:46.949Z,57.5
2024-04-17T11:16:48.356Z,58
2024-04-17T11:17:47.103Z,59.1
2024-04-17T11:18:47.127Z,57.5
2024-04-17T11:19:46.979Z,57.7
2024-04-17T11:20:46.995Z,58.3
2024-04-17T11:21:47.032Z,58.8
2024-04-17T11:22:47.006Z,60.9
2024-04-17T11:23:46.961Z,59.8
2024-04-17T11:24:46.972Z,60.8
2024-04-17T11:25:47.019Z,58.8
2024-04-17T11:26:46.957Z,59.3
2024-04-17T11:27:46.967Z,60
2024-04-17T11:28:49.745Z,59.8
2024-04-17T11:29:48.925Z,60.5
2024-04-17T11:30:46.954Z,59.3
2024-04-17T11:31:46.969Z,59
2024-04-17T11:32:47.059Z,57.6
2024-04-17T11:33:47.282Z,60.4
2024-04-17T11:34:47.018Z,59.2
2024-04-17T11:35:46.988Z,60.1
2024-04-17T11:36:46.952Z,58.8
2024-04-17T11:37:47.084Z,57.5
2024-04-17T11:38:46.980Z,57.3
2024-04-17T11:39:49.076Z,58.2
2024-04-17T11:40:47.032Z,60.2
2024-04-17T11:41:47.002Z,61.1
2024-04-17T11:42:46.982Z,59
2024-04-17T11:43:47.314Z,58.4
2024-04-17T11:44:47.000Z,58.2
2024-04-17T11:45:46.958Z,58.3
2024-04-17T11:46:47.057Z,59.1
2024-04-17T11:47:47.075Z,58
2024-04-17T11:48:47.150Z,56.4
2024-04-17T11:49:47.037Z,56.2
2024-04-17T11:50:46.972Z,57.5
2024-04-17T11:51:46.970Z,56.8
2024-04-17T11:52:46.970Z,58.4
2024-04-17T11:53:46.985Z,57.8
2024-04-17T11:54:47.005Z,57.1
2024-04-17T11:55:47.091Z,58.2
2024-04-17T11:56:46.961Z,57.5
2024-04-17T11:57:46.966Z,59.8
2024-04-17T11:58:47.095Z,58
2024-04-17T11:59:46.982Z,57.7
2024-04-17T12:00:46.979Z,61.4
2024-04-17T12:01:46.983Z,62.1
2024-04-17T12:02:46.987Z,63.5
2024-04-17T12:03:47.113Z,60
2024-04-17T12:04:47.086Z,61.2
2024-04-17T12:05:48.750Z,61.3
2024-04-17T12:06:46.985Z,65.1
2024-04-17T12:07:47.011Z,65.3
2024-04-17T12:08:46.942Z,64.8
2024-04-17T12:09:46.964Z,65
2024-04-17T12:10:46.988Z,62.3
2024-04-17T12:11:47.014Z,63.6
2024-04-17T12:12:46.962Z,66.7
2024-04-17T12:13:47.018Z,65.4
2024-04-17T12:14:46.957Z,62.3
2024-04-17T12:15:47.016Z,63.4
2024-04-17T12:16:47.039Z,64.6
2024-04-17T12:17:47.003Z,64.4
2024-04-17T12:18:46.980Z,64.8
2024-04-17T12:19:47.006Z,62.6
2024-04-17T12:20:46.955Z,65
2024-04-17T12:21:46.974Z,64.3
2024-04-17T12:22:47.004Z,65.8
2024-04-17T12:23:46.965Z,62.7
2024-04-17T12:24:46.950Z,63.1
2024-04-17T12:25:47.005Z,62.8
2024-04-17T12:26:46.975Z,63
2024-04-17T12:27:46.928Z,62.5
2024-04-17T12:28:47.059Z,61.1
2024-04-17T12:29:46.934Z,58.8
2024-04-17T12:30:46.980Z,61.3
2024-04-17T12:31:47.029Z,59.3
2024-04-17T12:32:47.093Z,60.3
2024-04-17T12:33:47.057Z,60.2
2024-04-17T12:34:47.023Z,59.9
2024-04-17T12:35:46.929Z,60.9
2024-04-17T12:36:46.966Z,60.1
2024-04-17T12:37:46.992Z,60.5
2024-04-17T12:38:46.967Z,59.9
2024-04-17T12:39:46.969Z,58.4
2024-04-17T12:40:47.730Z,58
2024-04-17T12:41:46.974Z,58.2
2024-04-17T12:42:46.985Z,58.5
2024-04-17T12:43:46.999Z,58.3
2024-04-17T12:44:46.973Z,60.5
2024-04-17T12:45:46.967Z,58.3
2024-04-17T12:46:46.981Z,61.1
2024-04-17T12:47:47.061Z,58.6
2024-04-17T12:48:47.011Z,60.4
2024-04-17T12:49:46.986Z,62.1
2024-04-17T12:50:46.939Z,60.3
2024-04-17T12:51:46.948Z,60.9
2024-04-17T12:52:46.976Z,62
2024-04-17T12:53:46.978Z,62.1
2024-04-17T12:54:46.965Z,63
2024-04-17T12:55:46.974Z,64.3
2024-04-17T12:56:46.967Z,63
2024-04-17T12:57:46.956Z,63.4
2024-04-17T12:58:47.260Z,62.4
2024-04-17T12:59:46.962Z,63.7
2024-04-17T13:00:47.034Z,62.9
2024-04-17T13:01:46.975Z,63.1
2024-04-17T13:02:47.002Z,63.7
2024-04-17T13:03:47.072Z,63.7
2024-04-17T13:04:47.004Z,64
2024-04-17T13:05:46.957Z,63.4
2024-04-17T13:06:46.954Z,63.9
2024-04-17T13:07:46.975Z,64.1
2024-04-17T13:08:46.968Z,64
2024-04-17T13:09:46.979Z,64.3
2024-04-17T13:10:46.988Z,63.7
2024-04-17T13:11:47.012Z,62.5
2024-04-17T13:12:46.959Z,62.1
2024-04-17T13:13:46.962Z,64.3
2024-04-17T13:14:46.972Z,64
2024-04-17T13:15:46.975Z,60.4
2024-04-17T13:16:46.987Z,61.1
2024-04-17T13:17:46.996Z,60.6
2024-04-17T13:18:47.091Z,60.5
2024-04-17T13:19:48.383Z,60
2024-04-17T13:20:46.984Z,59.5
2024-04-17T13:21:47.000Z,58.9
2024-04-17T13:22:55.689Z,61.2
2024-04-17T13:23:47.118Z,58.7
2024-04-17T13:24:47.031Z,60.2
2024-04-17T13:25:46.986Z,59.7